D/T METAR WX W/DIR W/SPE G/SPE TEMP DEWP
8/12/19 00:50 EGAA 080050Z 25014KT 9999 BKN017 BKN023 09/07 Q0989 WSW (250°) 16.1mph 9°C 7°C
7/12/19 23:50 EGAA 072350Z 24015KT 9999 FEW024 SCT048 09/08 Q0989 WSW (240°) 17.3mph 9°C 8°C
7/12/19 23:20 EGAA 072320Z 26017KT 9999 FEW007 SCT036 OVC044 09/09 Q0988 RERA W (260°) 19.6mph 9°C 9°C
7/12/19 22:20 EGAA 072220Z 21014KT 9999 BKN007 BKN010 OVC015 11/10 Q0987 RERA SSW (210°) 16.1mph 11°C 10°C
7/12/19 21:50 EGAA 072150Z 21016KT 8000 -RA SCT008 OVC012 11/10 Q0988 -RA SSW (210°) 18.4mph 11°C 10°C
7/12/19 20:50 EGAA 072050Z 19014KT 9999 -RA BKN008 OVC013 10/10 Q0990 RERA -RA S (190°) 16.1mph 10°C 10°C
7/12/19 20:20 EGAA 072020Z 20015G25KT 5000 RA BKN011 10/09 Q0991 RA SSW (200°) 17.3mph 28.8mph 10°C 9°C
7/12/19 19:50 EGAA 071950Z 19015KT 9999 -RA BKN012 11/09 Q0992 -RA S (190°) 17.3mph 11°C 9°C
7/12/19 19:20 EGAA 071920Z 19015KT 9999 BKN014 11/09 Q0993 S (190°) 17.3mph 11°C 9°C
7/12/19 18:50 EGAA 071850Z 19017KT 9999 BKN016 11/09 Q0994 S (190°) 19.6mph 11°C 9°C
7/12/19 18:20 EGAA 071820Z 19016KT 170V230 9999 -RA SCT015 BKN020 11/09 Q0995 -RA S (190°) 18.4mph 11°C 9°C
7/12/19 17:50 EGAA 071750Z 19015KT 9999 FEW018 11/09 Q0996 S (190°) 17.3mph 11°C 9°C
7/12/19 16:50 EGAA 071650Z 19010KT 9999 FEW016 11/09 Q0998 S (190°) 11.5mph 11°C 9°C
7/12/19 16:20 EGAA 071620Z 20015KT 9999 SCT016 11/09 Q0999 SSW (200°) 17.3mph 11°C 9°C
7/12/19 15:50 EGAA 071550Z 21010KT 9999 FEW011 BKN016 11/10 Q1000 SSW (210°) 11.5mph 11°C 10°C
7/12/19 15:20 EGAA 071520Z 21014G24KT 9999 BKN009 11/10 Q1000 SSW (210°) 16.1mph 27.6mph 11°C 10°C
7/12/19 14:50 EGAA 071450Z 22013KT 9999 BKN009 10/09 Q1001 SW (220°) 15.0mph 10°C 9°C
7/12/19 14:20 EGAA 071420Z 21015KT 9999 BKN011 10/09 Q1001 SSW (210°) 17.3mph 10°C 9°C
7/12/19 13:50 EGAA 071350Z 21012KT 9999 OVC009 10/09 Q1002 SSW (210°) 13.8mph 10°C 9°C
7/12/19 13:20 EGAA 071320Z 21013KT 9999 OVC009 10/09 Q1003 SSW (210°) 15.0mph 10°C 9°C
7/12/19 12:50 EGAA 071250Z 21012KT 9999 OVC009 10/09 Q1003 SSW (210°) 13.8mph 10°C 9°C
7/12/19 12:20 EGAA 071220Z 22010KT 9999 OVC009 10/09 Q1004 SW (220°) 11.5mph 10°C 9°C
7/12/19 11:50 EGAA 071150Z 21010KT 9999 SCT007 OVC009 09/09 Q1004 SSW (210°) 11.5mph 9°C 9°C
7/12/19 11:20 EGAA 071120Z 20010KT 9999 SCT006 OVC009 09/08 Q1005 SSW (200°) 11.5mph 9°C 8°C
7/12/19 10:50 EGAA 071050Z 19011KT 9999 6000E -DZ OVC008 09/08 Q1005 -DZ S (190°) 12.7mph 9°C 8°C
7/12/19 10:20 EGAA 071020Z 19009KT 9999 OVC008 08/08 Q1006 S (190°) 10.4mph 8°C 8°C
7/12/19 09:50 EGAA 070950Z 17007KT 140V200 9999 BKN008 08/07 Q1006 S (170°) 8.1mph 8°C 7°C
7/12/19 09:20 EGAA 070920Z 19008KT 160V220 9999 OVC008 08/07 Q1007 S (190°) 9.2mph 8°C 7°C
7/12/19 08:50 EGAA 070850Z 20010KT 9999 OVC008 08/07 Q1007 SSW (200°) 11.5mph 8°C 7°C
7/12/19 08:20 EGAA 070820Z 20008KT 9999 OVC006 07/07 Q1007 SSW (200°) 9.2mph 7°C 7°C
7/12/19 07:50 EGAA 070750Z 21008KT 9999 SCT006 OVC008 07/07 Q1007 SSW (210°) 9.2mph 7°C 7°C
7/12/19 07:20 EGAA 070720Z 21009KT 9999 SCT006 OVC010 07/07 Q1007 SSW (210°) 10.4mph 7°C 7°C
7/12/19 06:50 EGAA 070650Z 21009KT 9999 FEW006 BKN011 07/07 Q1007 SSW (210°) 10.4mph 7°C 7°C
7/12/19 06:20 EGAA 070620Z 21009KT 9999 BKN010 BKN015 07/07 Q1007 SSW (210°) 10.4mph 7°C 7°C
7/12/19 05:50 EGAA 070550Z 21010KT 9999 BKN011 BKN015 07/06 Q1008 SSW (210°) 11.5mph 7°C 6°C
7/12/19 05:20 EGAA 070520Z 22010KT 9999 BKN010 BKN014 07/07 Q1008 SW (220°) 11.5mph 7°C 7°C
7/12/19 04:50 EGAA 070450Z 22011KT 9999 BKN012 BKN017 07/07 Q1008 SW (220°) 12.7mph 7°C 7°C
7/12/19 04:20 EGAA 070420Z AUTO 23011KT 9999 FEW003/// SCT011/// BKN016/// 07/07 Q1008 SW (230°) 12.7mph 7°C 7°C
7/12/19 03:50 EGAA 070350Z AUTO 23010KT 5000 BR SCT002/// BKN012/// OVC016/// 07/07 Q1007 BR SW (230°) 11.5mph 7°C 7°C
7/12/19 03:20 EGAA 070320Z AUTO 23012KT 9999 FEW003/// BKN008/// OVC013/// 07/07 Q1007 SW (230°) 13.8mph 7°C 7°C
7/12/19 02:50 EGAA 070250Z 23011KT 9999 SCT001 BKN041 07/07 Q1007 SW (230°) 12.7mph 7°C 7°C
7/12/19 02:20 EGAA 070220Z 22009KT 9999 FEW017 BKN039 BKN047 07/06 Q1007 SW (220°) 10.4mph 7°C 6°C
7/12/19 01:50 EGAA 070150Z 23013KT 9999 FEW014 SCT023 BKN039 07/07 Q1007 SW (230°) 15.0mph 7°C 7°C
7/12/19 01:20 EGAA 070120Z 24011KT 9999 FEW014 SCT020 BKN038 07/06 Q1007 WSW (240°) 12.7mph 7°C 6°C
7/12/19 00:50 EGAA 070050Z 23009KT 9999 SCT014 BKN019 OVC025 07/07 Q1007 SW (230°) 10.4mph 7°C 7°C
7/12/19 00:20 EGAA 070020Z 21009KT 9999 FEW013 BKN020 OVC041 07/07 Q1006 SSW (210°) 10.4mph 7°C 7°C
6/12/19 23:50 EGAA 062350Z 23011KT 9999 FEW016 BKN022 08/07 Q1006 SW (230°) 12.7mph 8°C 7°C
6/12/19 23:20 EGAA 062320Z 23010KT 9999 FEW017 BKN023 BKN031 08/07 Q1006 SW (230°) 11.5mph 8°C 7°C